Terminal Aerodrome Forecast
Issued by NWS

Home | Current Version | Previous Version | Text Only | Print | Product List | Glossary On
Versions: 1 2 3 4 5 6 7 8 9 10 11 12 13 14 15 16 17 18 19 20 21 22 23 24 25 26 27 28 29 30 31 32 33 34 35 36 37 38 39 40
000
FTUS43 KDDC 241720
TAFGCK
TAF
KGCK 241720Z 2418/2518 35022G32KT P6SM OVC028
     FM242200 36020G30KT P6SM BKN040
     FM250000 02010G20KT P6SM SCT040
     FM250300 02007KT P6SM SKC
     FM250900 VRB04KT P6SM BKN100
     FM251500 20013G23KT P6SM OVC070=

USA.gov is the U.S. government's official web portal to all federal, state and local government web resources and services.